sensor_id;sensor_type;location;lat;lon;timestamp;P1;durP1;ratioP1;P2;durP2;ratioP2
39620;SDS011;25309;48.686;9.170;2023-06-22T00:00:14;9.47;;;7.67;;
39620;SDS011;25309;48.686;9.170;2023-06-22T00:02:41;8.93;;;7.77;;
39620;SDS011;25309;48.686;9.170;2023-06-22T00:05:08;10.53;;;8.00;;
39620;SDS011;25309;48.686;9.170;2023-06-22T00:07:37;8.50;;;7.43;;
39620;SDS011;25309;48.686;9.170;2023-06-22T00:10:04;9.00;;;7.77;;
39620;SDS011;25309;48.686;9.170;2023-06-22T00:12:32;8.17;;;7.03;;
39620;SDS011;25309;48.686;9.170;2023-06-22T00:14:59;11.80;;;7.60;;
39620;SDS011;25309;48.686;9.170;2023-06-22T00:17:26;9.57;;;7.53;;
39620;SDS011;25309;48.686;9.170;2023-06-22T00:19:53;8.43;;;7.00;;
39620;SDS011;25309;48.686;9.170;2023-06-22T00:22:21;8.83;;;6.83;;
39620;SDS011;25309;48.686;9.170;2023-06-22T00:24:56;8.97;;;7.37;;
39620;SDS011;25309;48.686;9.170;2023-06-22T00:27:23;8.63;;;7.37;;
39620;SDS011;25309;48.686;9.170;2023-06-22T00:29:50;12.47;;;8.07;;
39620;SDS011;25309;48.686;9.170;2023-06-22T00:32:18;10.57;;;8.00;;
39620;SDS011;25309;48.686;9.170;2023-06-22T00:34:46;8.50;;;7.50;;
39620;SDS011;25309;48.686;9.170;2023-06-22T00:37:13;10.30;;;8.10;;
39620;SDS011;25309;48.686;9.170;2023-06-22T00:39:40;9.57;;;7.77;;
39620;SDS011;25309;48.686;9.170;2023-06-22T00:42:09;9.03;;;8.13;;
39620;SDS011;25309;48.686;9.170;2023-06-22T00:44:36;11.50;;;8.00;;
39620;SDS011;25309;48.686;9.170;2023-06-22T00:47:03;11.60;;;8.03;;
39620;SDS011;25309;48.686;9.170;2023-06-22T00:49:30;10.00;;;8.00;;
39620;SDS011;25309;48.686;9.170;2023-06-22T00:51:57;10.20;;;8.23;;
39620;SDS011;25309;48.686;9.170;2023-06-22T00:54:26;10.30;;;8.23;;
39620;SDS011;25309;48.686;9.170;2023-06-22T00:56:54;12.43;;;8.23;;
39620;SDS011;25309;48.686;9.170;2023-06-22T01:01:52;10.03;;;8.20;;
39620;SDS011;25309;48.686;9.170;2023-06-22T01:04:19;9.50;;;7.77;;
39620;SDS011;25309;48.686;9.170;2023-06-22T01:06:55;11.33;;;8.37;;
39620;SDS011;25309;48.686;9.170;2023-06-22T01:09:42;10.17;;;8.63;;
39620;SDS011;25309;48.686;9.170;2023-06-22T01:12:15;10.90;;;8.60;;
39620;SDS011;25309;48.686;9.170;2023-06-22T01:14:47;10.17;;;8.17;;
39620;SDS011;25309;48.686;9.170;2023-06-22T01:17:21;10.10;;;7.97;;
39620;SDS011;25309;48.686;9.170;2023-06-22T01:19:51;11.73;;;8.20;;
39620;SDS011;25309;48.686;9.170;2023-06-22T01:22:23;9.20;;;8.10;;
39620;SDS011;25309;48.686;9.170;2023-06-22T01:24:55;9.40;;;7.60;;
39620;SDS011;25309;48.686;9.170;2023-06-22T01:27:36;8.70;;;7.27;;
39620;SDS011;25309;48.686;9.170;2023-06-22T01:30:13;8.43;;;7.53;;
39620;SDS011;25309;48.686;9.170;2023-06-22T01:32:42;8.57;;;7.67;;
39620;SDS011;25309;48.686;9.170;2023-06-22T01:35:10;9.73;;;7.17;;
39620;SDS011;25309;48.686;9.170;2023-06-22T01:37:38;10.37;;;7.40;;
39620;SDS011;25309;48.686;9.170;2023-06-22T01:40:06;9.60;;;7.87;;
39620;SDS011;25309;48.686;9.170;2023-06-22T01:42:35;11.23;;;7.70;;
39620;SDS011;25309;48.686;9.170;2023-06-22T01:45:03;9.80;;;7.73;;
39620;SDS011;25309;48.686;9.170;2023-06-22T01:47:33;11.07;;;7.33;;
39620;SDS011;25309;48.686;9.170;2023-06-22T01:50:01;10.40;;;7.87;;
39620;SDS011;25309;48.686;9.170;2023-06-22T01:52:28;10.43;;;7.87;;
39620;SDS011;25309;48.686;9.170;2023-06-22T01:54:55;9.43;;;8.00;;
39620;SDS011;25309;48.686;9.170;2023-06-22T01:57:24;8.77;;;7.60;;
39620;SDS011;25309;48.686;9.170;2023-06-22T01:59:52;9.00;;;6.17;;
39620;SDS011;25309;48.686;9.170;2023-06-22T02:02:26;11.27;;;7.30;;
39620;SDS011;25309;48.686;9.170;2023-06-22T02:05:03;9.17;;;6.93;;
39620;SDS011;25309;48.686;9.170;2023-06-22T02:07:34;8.73;;;7.83;;
39620;SDS011;25309;48.686;9.170;2023-06-22T02:10:06;8.47;;;7.47;;
39620;SDS011;25309;48.686;9.170;2023-06-22T02:12:34;8.13;;;7.00;;
39620;SDS011;25309;48.686;9.170;2023-06-22T02:15:03;9.67;;;7.17;;
39620;SDS011;25309;48.686;9.170;2023-06-22T02:17:32;7.80;;;6.40;;
39620;SDS011;25309;48.686;9.170;2023-06-22T02:20:00;8.97;;;7.37;;
39620;SDS011;25309;48.686;9.170;2023-06-22T02:22:34;10.13;;;8.47;;
39620;SDS011;25309;48.686;9.170;2023-06-22T02:25:01;9.40;;;7.40;;
39620;SDS011;25309;48.686;9.170;2023-06-22T02:27:29;8.30;;;6.93;;
39620;SDS011;25309;48.686;9.170;2023-06-22T02:29:56;9.27;;;7.20;;
39620;SDS011;25309;48.686;9.170;2023-06-22T02:32:23;9.10;;;7.77;;
39620;SDS011;25309;48.686;9.170;2023-06-22T02:34:50;10.17;;;8.10;;
39620;SDS011;25309;48.686;9.170;2023-06-22T02:37:19;10.73;;;7.50;;
39620;SDS011;25309;48.686;9.170;2023-06-22T02:39:46;10.70;;;8.00;;
39620;SDS011;25309;48.686;9.170;2023-06-22T02:42:13;9.07;;;7.70;;
39620;SDS011;25309;48.686;9.170;2023-06-22T02:44:41;8.70;;;7.17;;
39620;SDS011;25309;48.686;9.170;2023-06-22T02:47:08;8.80;;;7.47;;
39620;SDS011;25309;48.686;9.170;2023-06-22T02:49:36;8.70;;;7.30;;
39620;SDS011;25309;48.686;9.170;2023-06-22T02:52:03;8.60;;;7.53;;
39620;SDS011;25309;48.686;9.170;2023-06-22T02:54:32;10.60;;;7.03;;
39620;SDS011;25309;48.686;9.170;2023-06-22T02:57:00;7.67;;;6.00;;
39620;SDS011;25309;48.686;9.170;2023-06-22T02:59:29;10.53;;;6.93;;
39620;SDS011;25309;48.686;9.170;2023-06-22T03:02:06;9.97;;;7.60;;
39620;SDS011;25309;48.686;9.170;2023-06-22T03:04:34;8.73;;;7.10;;
39620;SDS011;25309;48.686;9.170;2023-06-22T03:07:01;8.17;;;6.70;;
39620;SDS011;25309;48.686;9.170;2023-06-22T03:09:32;8.73;;;6.90;;
39620;SDS011;25309;48.686;9.170;2023-06-22T03:11:59;8.30;;;6.80;;
39620;SDS011;25309;48.686;9.170;2023-06-22T03:14:33;8.77;;;7.00;;
39620;SDS011;25309;48.686;9.170;2023-06-22T03:17:01;9.17;;;7.40;;
39620;SDS011;25309;48.686;9.170;2023-06-22T03:19:29;9.30;;;7.13;;
39620;SDS011;25309;48.686;9.170;2023-06-22T03:21:58;9.47;;;7.07;;
39620;SDS011;25309;48.686;9.170;2023-06-22T03:24:26;8.70;;;6.83;;
39620;SDS011;25309;48.686;9.170;2023-06-22T03:26:56;7.43;;;6.33;;
39620;SDS011;25309;48.686;9.170;2023-06-22T03:29:23;10.03;;;7.00;;
39620;SDS011;25309;48.686;9.170;2023-06-22T03:31:54;10.03;;;7.80;;
39620;SDS011;25309;48.686;9.170;2023-06-22T03:34:22;9.43;;;7.73;;
39620;SDS011;25309;48.686;9.170;2023-06-22T03:36:51;9.17;;;6.97;;
39620;SDS011;25309;48.686;9.170;2023-06-22T03:39:18;9.57;;;7.30;;
39620;SDS011;25309;48.686;9.170;2023-06-22T03:41:46;8.80;;;7.33;;
39620;SDS011;25309;48.686;9.170;2023-06-22T03:44:15;9.67;;;7.73;;
39620;SDS011;25309;48.686;9.170;2023-06-22T03:46:42;9.83;;;7.60;;
39620;SDS011;25309;48.686;9.170;2023-06-22T03:49:09;11.13;;;7.63;;
39620;SDS011;25309;48.686;9.170;2023-06-22T03:51:36;9.20;;;7.97;;
39620;SDS011;25309;48.686;9.170;2023-06-22T03:54:02;13.63;;;9.00;;
39620;SDS011;25309;48.686;9.170;2023-06-22T03:56:29;9.67;;;8.07;;
39620;SDS011;25309;48.686;9.170;2023-06-22T03:58:57;10.03;;;7.80;;
39620;SDS011;25309;48.686;9.170;2023-06-22T04:01:26;8.47;;;7.40;;
39620;SDS011;25309;48.686;9.170;2023-06-22T04:03:52;9.33;;;7.50;;
39620;SDS011;25309;48.686;9.170;2023-06-22T04:06:19;9.47;;;7.57;;
39620;SDS011;25309;48.686;9.170;2023-06-22T04:08:46;9.77;;;7.57;;
39620;SDS011;25309;48.686;9.170;2023-06-22T04:11:17;9.60;;;7.70;;
39620;SDS011;25309;48.686;9.170;2023-06-22T04:13:44;9.63;;;7.70;;
39620;SDS011;25309;48.686;9.170;2023-06-22T04:16:11;8.77;;;7.27;;
39620;SDS011;25309;48.686;9.170;2023-06-22T04:18:40;9.90;;;6.87;;
39620;SDS011;25309;48.686;9.170;2023-06-22T04:21:08;10.47;;;7.00;;
39620;SDS011;25309;48.686;9.170;2023-06-22T04:23:36;8.73;;;7.07;;
39620;SDS011;25309;48.686;9.170;2023-06-22T04:26:03;10.47;;;8.00;;
39620;SDS011;25309;48.686;9.170;2023-06-22T04:28:30;9.83;;;7.70;;
39620;SDS011;25309;48.686;9.170;2023-06-22T04:31:01;9.40;;;6.83;;
39620;SDS011;25309;48.686;9.170;2023-06-22T04:33:28;7.67;;;6.13;;
39620;SDS011;25309;48.686;9.170;2023-06-22T04:35:59;9.27;;;7.57;;
39620;SDS011;25309;48.686;9.170;2023-06-22T04:38:27;10.30;;;7.17;;
39620;SDS011;25309;48.686;9.170;2023-06-22T04:40:54;10.03;;;6.80;;
39620;SDS011;25309;48.686;9.170;2023-06-22T04:43:21;7.87;;;6.80;;
39620;SDS011;25309;48.686;9.170;2023-06-22T04:45:48;9.13;;;6.80;;
39620;SDS011;25309;48.686;9.170;2023-06-22T04:48:18;8.93;;;7.20;;
39620;SDS011;25309;48.686;9.170;2023-06-22T04:50:45;9.70;;;7.23;;
39620;SDS011;25309;48.686;9.170;2023-06-22T04:53:14;9.17;;;7.00;;
39620;SDS011;25309;48.686;9.170;2023-06-22T04:55:41;10.97;;;7.60;;
39620;SDS011;25309;48.686;9.170;2023-06-22T04:58:08;9.13;;;6.80;;
39620;SDS011;25309;48.686;9.170;2023-06-22T05:00:35;9.33;;;7.50;;
39620;SDS011;25309;48.686;9.170;2023-06-22T05:03:05;10.90;;;6.97;;
39620;SDS011;25309;48.686;9.170;2023-06-22T05:05:45;8.60;;;6.87;;
39620;SDS011;25309;48.686;9.170;2023-06-22T05:08:13;8.40;;;6.83;;
39620;SDS011;25309;48.686;9.170;2023-06-22T05:10:40;9.17;;;7.00;;
39620;SDS011;25309;48.686;9.170;2023-06-22T05:13:27;9.47;;;7.00;;
39620;SDS011;25309;48.686;9.170;2023-06-22T05:15:54;8.83;;;7.00;;
39620;SDS011;25309;48.686;9.170;2023-06-22T05:18:28;7.20;;;6.03;;
39620;SDS011;25309;48.686;9.170;2023-06-22T05:20:57;8.67;;;6.17;;
39620;SDS011;25309;48.686;9.170;2023-06-22T05:23:26;11.10;;;6.87;;
39620;SDS011;25309;48.686;9.170;2023-06-22T05:25:53;8.83;;;6.40;;
39620;SDS011;25309;48.686;9.170;2023-06-22T05:28:21;9.90;;;6.60;;
39620;SDS011;25309;48.686;9.170;2023-06-22T05:30:49;9.23;;;5.67;;
39620;SDS011;25309;48.686;9.170;2023-06-22T05:33:16;10.47;;;6.43;;
39620;SDS011;25309;48.686;9.170;2023-06-22T05:35:43;8.27;;;6.37;;
39620;SDS011;25309;48.686;9.170;2023-06-22T05:38:10;7.90;;;6.23;;
39620;SDS011;25309;48.686;9.170;2023-06-22T05:40:38;7.67;;;6.30;;
39620;SDS011;25309;48.686;9.170;2023-06-22T05:43:05;8.00;;;5.93;;
39620;SDS011;25309;48.686;9.170;2023-06-22T05:45:32;9.47;;;6.27;;
39620;SDS011;25309;48.686;9.170;2023-06-22T05:47:59;5.93;;;5.20;;
39620;SDS011;25309;48.686;9.170;2023-06-22T05:50:27;6.30;;;5.10;;
39620;SDS011;25309;48.686;9.170;2023-06-22T05:52:55;6.67;;;5.30;;
39620;SDS011;25309;48.686;9.170;2023-06-22T05:55:22;5.73;;;5.10;;
39620;SDS011;25309;48.686;9.170;2023-06-22T05:57:50;7.90;;;5.57;;
39620;SDS011;25309;48.686;9.170;2023-06-22T06:00:17;8.10;;;5.40;;
39620;SDS011;25309;48.686;9.170;2023-06-22T06:02:45;7.07;;;5.00;;
39620;SDS011;25309;48.686;9.170;2023-06-22T06:05:12;7.13;;;4.47;;
39620;SDS011;25309;48.686;9.170;2023-06-22T06:07:42;7.07;;;4.83;;
39620;SDS011;25309;48.686;9.170;2023-06-22T06:10:09;7.67;;;5.03;;
39620;SDS011;25309;48.686;9.170;2023-06-22T06:12:36;6.93;;;4.93;;
39620;SDS011;25309;48.686;9.170;2023-06-22T06:15:05;6.73;;;4.73;;
39620;SDS011;25309;48.686;9.170;2023-06-22T06:17:43;7.30;;;5.73;;
39620;SDS011;25309;48.686;9.170;2023-06-22T06:20:11;8.23;;;4.70;;
39620;SDS011;25309;48.686;9.170;2023-06-22T06:22:38;6.60;;;4.80;;
39620;SDS011;25309;48.686;9.170;2023-06-22T06:25:06;7.43;;;5.17;;
39620;SDS011;25309;48.686;9.170;2023-06-22T06:27:33;6.93;;;5.40;;
39620;SDS011;25309;48.686;9.170;2023-06-22T06:30:00;9.17;;;6.07;;
39620;SDS011;25309;48.686;9.170;2023-06-22T06:32:29;7.03;;;5.93;;
39620;SDS011;25309;48.686;9.170;2023-06-22T06:34:56;9.30;;;5.77;;
39620;SDS011;25309;48.686;9.170;2023-06-22T06:37:23;8.70;;;5.50;;
39620;SDS011;25309;48.686;9.170;2023-06-22T06:39:50;8.67;;;5.77;;
39620;SDS011;25309;48.686;9.170;2023-06-22T06:42:17;9.77;;;5.93;;
39620;SDS011;25309;48.686;9.170;2023-06-22T06:44:45;7.83;;;5.90;;
39620;SDS011;25309;48.686;9.170;2023-06-22T06:47:12;7.53;;;5.43;;
39620;SDS011;25309;48.686;9.170;2023-06-22T06:49:40;6.50;;;4.57;;
39620;SDS011;25309;48.686;9.170;2023-06-22T06:52:07;6.10;;;4.83;;
39620;SDS011;25309;48.686;9.170;2023-06-22T06:54:34;7.33;;;4.70;;
39620;SDS011;25309;48.686;9.170;2023-06-22T06:57:02;8.33;;;5.23;;
39620;SDS011;25309;48.686;9.170;2023-06-22T06:59:30;6.90;;;4.73;;
39620;SDS011;25309;48.686;9.170;2023-06-22T07:01:56;6.07;;;4.53;;
39620;SDS011;25309;48.686;9.170;2023-06-22T07:04:23;6.73;;;4.97;;
39620;SDS011;25309;48.686;9.170;2023-06-22T07:06:52;7.53;;;4.47;;
39620;SDS011;25309;48.686;9.170;2023-06-22T07:09:18;7.97;;;4.87;;
39620;SDS011;25309;48.686;9.170;2023-06-22T07:11:45;6.13;;;4.20;;
39620;SDS011;25309;48.686;9.170;2023-06-22T07:14:12;6.97;;;4.27;;
39620;SDS011;25309;48.686;9.170;2023-06-22T07:16:39;8.57;;;5.37;;
39620;SDS011;25309;48.686;9.170;2023-06-22T07:19:07;7.43;;;5.03;;
39620;SDS011;25309;48.686;9.170;2023-06-22T07:21:35;6.03;;;4.60;;
39620;SDS011;25309;48.686;9.170;2023-06-22T07:24:04;7.50;;;4.53;;
39620;SDS011;25309;48.686;9.170;2023-06-22T07:26:32;6.13;;;4.60;;
39620;SDS011;25309;48.686;9.170;2023-06-22T07:28:59;6.90;;;4.40;;
39620;SDS011;25309;48.686;9.170;2023-06-22T07:31:26;9.63;;;4.83;;
39620;SDS011;25309;48.686;9.170;2023-06-22T07:33:53;6.50;;;4.40;;
39620;SDS011;25309;48.686;9.170;2023-06-22T07:36:20;8.70;;;4.70;;
39620;SDS011;25309;48.686;9.170;2023-06-22T07:38:47;9.90;;;4.63;;
39620;SDS011;25309;48.686;9.170;2023-06-22T07:41:15;8.40;;;5.03;;
39620;SDS011;25309;48.686;9.170;2023-06-22T07:43:42;6.20;;;4.97;;
39620;SDS011;25309;48.686;9.170;2023-06-22T07:46:09;8.77;;;4.40;;
39620;SDS011;25309;48.686;9.170;2023-06-22T07:48:37;6.90;;;4.20;;
39620;SDS011;25309;48.686;9.170;2023-06-22T07:51:04;7.17;;;4.30;;
39620;SDS011;25309;48.686;9.170;2023-06-22T07:53:32;7.37;;;4.00;;
39620;SDS011;25309;48.686;9.170;2023-06-22T07:55:58;6.07;;;4.17;;
39620;SDS011;25309;48.686;9.170;2023-06-22T07:58:27;6.50;;;4.07;;
39620;SDS011;25309;48.686;9.170;2023-06-22T08:00:54;5.87;;;4.03;;
39620;SDS011;25309;48.686;9.170;2023-06-22T08:03:21;6.37;;;4.43;;
39620;SDS011;25309;48.686;9.170;2023-06-22T08:05:48;6.00;;;4.73;;
39620;SDS011;25309;48.686;9.170;2023-06-22T08:08:15;4.73;;;3.90;;
39620;SDS011;25309;48.686;9.170;2023-06-22T08:10:42;8.03;;;4.80;;
39620;SDS011;25309;48.686;9.170;2023-06-22T08:13:09;8.10;;;4.63;;
39620;SDS011;25309;48.686;9.170;2023-06-22T08:15:38;7.63;;;4.53;;
39620;SDS011;25309;48.686;9.170;2023-06-22T08:18:05;7.60;;;4.57;;
39620;SDS011;25309;48.686;9.170;2023-06-22T08:20:32;7.47;;;5.00;;
39620;SDS011;25309;48.686;9.170;2023-06-22T08:22:59;8.20;;;5.13;;
39620;SDS011;25309;48.686;9.170;2023-06-22T08:25:32;9.40;;;5.13;;
39620;SDS011;25309;48.686;9.170;2023-06-22T08:27:59;8.70;;;4.93;;
39620;SDS011;25309;48.686;9.170;2023-06-22T08:30:26;6.93;;;5.03;;
39620;SDS011;25309;48.686;9.170;2023-06-22T08:32:54;7.30;;;5.20;;
39620;SDS011;25309;48.686;9.170;2023-06-22T08:35:22;6.93;;;4.90;;
39620;SDS011;25309;48.686;9.170;2023-06-22T08:37:49;10.93;;;4.90;;
39620;SDS011;25309;48.686;9.170;2023-06-22T08:40:20;6.43;;;4.87;;
39620;SDS011;25309;48.686;9.170;2023-06-22T08:42:48;6.57;;;5.00;;
39620;SDS011;25309;48.686;9.170;2023-06-22T08:45:15;11.13;;;5.53;;
39620;SDS011;25309;48.686;9.170;2023-06-22T08:47:42;8.70;;;5.40;;
39620;SDS011;25309;48.686;9.170;2023-06-22T08:50:11;9.03;;;5.13;;
39620;SDS011;25309;48.686;9.170;2023-06-22T08:52:39;7.87;;;5.07;;
39620;SDS011;25309;48.686;9.170;2023-06-22T08:55:09;8.13;;;5.30;;
39620;SDS011;25309;48.686;9.170;2023-06-22T08:57:37;8.43;;;5.03;;
39620;SDS011;25309;48.686;9.170;2023-06-22T09:00:06;8.77;;;5.10;;
39620;SDS011;25309;48.686;9.170;2023-06-22T09:02:43;7.43;;;5.00;;
39620;SDS011;25309;48.686;9.170;2023-06-22T09:05:11;7.17;;;5.07;;
39620;SDS011;25309;48.686;9.170;2023-06-22T09:07:38;7.77;;;4.87;;
39620;SDS011;25309;48.686;9.170;2023-06-22T09:10:06;9.83;;;5.77;;
39620;SDS011;25309;48.686;9.170;2023-06-22T09:12:34;8.53;;;5.20;;
39620;SDS011;25309;48.686;9.170;2023-06-22T09:15:03;8.27;;;4.80;;
39620;SDS011;25309;48.686;9.170;2023-06-22T09:17:37;8.47;;;5.10;;
39620;SDS011;25309;48.686;9.170;2023-06-22T09:20:05;9.30;;;5.40;;
39620;SDS011;25309;48.686;9.170;2023-06-22T09:22:35;7.03;;;4.80;;
39620;SDS011;25309;48.686;9.170;2023-06-22T09:25:02;9.40;;;5.73;;
39620;SDS011;25309;48.686;9.170;2023-06-22T09:27:33;9.50;;;5.37;;
39620;SDS011;25309;48.686;9.170;2023-06-22T09:30:00;10.83;;;5.10;;
39620;SDS011;25309;48.686;9.170;2023-06-22T09:32:26;8.40;;;5.47;;
39620;SDS011;25309;48.686;9.170;2023-06-22T09:34:53;6.43;;;4.73;;
39620;SDS011;25309;48.686;9.170;2023-06-22T09:37:20;8.10;;;4.90;;
39620;SDS011;25309;48.686;9.170;2023-06-22T09:39:49;9.07;;;5.37;;
39620;SDS011;25309;48.686;9.170;2023-06-22T09:42:16;10.80;;;5.53;;
39620;SDS011;25309;48.686;9.170;2023-06-22T09:44:43;9.00;;;5.67;;
39620;SDS011;25309;48.686;9.170;2023-06-22T09:47:10;8.43;;;5.40;;
39620;SDS011;25309;48.686;9.170;2023-06-22T09:49:37;9.40;;;5.93;;
39620;SDS011;25309;48.686;9.170;2023-06-22T09:52:14;8.87;;;5.20;;
39620;SDS011;25309;48.686;9.170;2023-06-22T09:54:41;7.57;;;5.47;;
39620;SDS011;25309;48.686;9.170;2023-06-22T09:57:10;7.50;;;5.20;;
39620;SDS011;25309;48.686;9.170;2023-06-22T09:59:37;6.53;;;5.43;;
39620;SDS011;25309;48.686;9.170;2023-06-22T10:02:06;8.93;;;5.40;;
39620;SDS011;25309;48.686;9.170;2023-06-22T10:04:33;7.43;;;5.20;;
39620;SDS011;25309;48.686;9.170;2023-06-22T10:07:01;7.80;;;5.47;;
39620;SDS011;25309;48.686;9.170;2023-06-22T10:09:28;6.43;;;4.90;;
39620;SDS011;25309;48.686;9.170;2023-06-22T10:11:55;9.87;;;5.80;;
39620;SDS011;25309;48.686;9.170;2023-06-22T10:14:23;6.87;;;5.33;;
39620;SDS011;25309;48.686;9.170;2023-06-22T10:16:51;8.30;;;5.50;;
39620;SDS011;25309;48.686;9.170;2023-06-22T10:19:18;8.83;;;5.23;;
39620;SDS011;25309;48.686;9.170;2023-06-22T10:21:45;8.97;;;5.67;;
39620;SDS011;25309;48.686;9.170;2023-06-22T10:24:12;11.93;;;5.53;;
39620;SDS011;25309;48.686;9.170;2023-06-22T10:26:39;7.40;;;5.33;;
39620;SDS011;25309;48.686;9.170;2023-06-22T10:29:06;9.73;;;5.77;;
39620;SDS011;25309;48.686;9.170;2023-06-22T10:31:44;9.40;;;5.40;;
39620;SDS011;25309;48.686;9.170;2023-06-22T10:34:10;7.57;;;5.20;;
39620;SDS011;25309;48.686;9.170;2023-06-22T10:36:38;7.32;;;5.35;;
39620;SDS011;25309;48.686;9.170;2023-06-22T10:39:05;10.88;;;6.03;;
39620;SDS011;25309;48.686;9.170;2023-06-22T10:41:32;7.72;;;5.65;;
39620;SDS011;25309;48.686;9.170;2023-06-22T10:43:59;10.13;;;5.10;;
39620;SDS011;25309;48.686;9.170;2023-06-22T10:46:26;9.10;;;5.70;;
39620;SDS011;25309;48.686;9.170;2023-06-22T10:48:55;9.02;;;5.70;;
39620;SDS011;25309;48.686;9.170;2023-06-22T10:51:25;7.43;;;5.63;;
39620;SDS011;25309;48.686;9.170;2023-06-22T10:53:52;7.65;;;5.45;;
39620;SDS011;25309;48.686;9.170;2023-06-22T10:56:19;9.25;;;5.68;;
39620;SDS011;25309;48.686;9.170;2023-06-22T10:58:46;8.70;;;5.45;;
39620;SDS011;25309;48.686;9.170;2023-06-22T11:01:13;8.13;;;5.32;;
39620;SDS011;25309;48.686;9.170;2023-06-22T11:04:01;8.60;;;5.78;;
39620;SDS011;25309;48.686;9.170;2023-06-22T11:06:37;9.55;;;5.70;;
39620;SDS011;25309;48.686;9.170;2023-06-22T11:09:04;9.57;;;5.40;;
39620;SDS011;25309;48.686;9.170;2023-06-22T11:11:51;9.60;;;5.10;;
39620;SDS011;25309;48.686;9.170;2023-06-22T11:14:22;7.90;;;5.50;;
39620;SDS011;25309;48.686;9.170;2023-06-22T11:16:49;8.77;;;5.10;;
39620;SDS011;25309;48.686;9.170;2023-06-22T11:19:16;9.38;;;5.47;;
39620;SDS011;25309;48.686;9.170;2023-06-22T11:21:45;8.50;;;5.40;;
39620;SDS011;25309;48.686;9.170;2023-06-22T11:24:11;8.52;;;5.05;;
39620;SDS011;25309;48.686;9.170;2023-06-22T11:26:38;8.75;;;5.63;;
39620;SDS011;25309;48.686;9.170;2023-06-22T11:29:05;7.68;;;5.45;;
39620;SDS011;25309;48.686;9.170;2023-06-22T11:31:33;11.98;;;5.38;;
39620;SDS011;25309;48.686;9.170;2023-06-22T11:34:00;8.13;;;5.72;;
39620;SDS011;25309;48.686;9.170;2023-06-22T11:36:28;8.88;;;5.55;;
39620;SDS011;25309;48.686;9.170;2023-06-22T11:38:57;10.23;;;6.05;;
39620;SDS011;25309;48.686;9.170;2023-06-22T11:41:24;8.02;;;5.50;;
39620;SDS011;25309;48.686;9.170;2023-06-22T11:43:51;7.97;;;4.90;;
39620;SDS011;25309;48.686;9.170;2023-06-22T11:46:18;8.32;;;5.25;;
39620;SDS011;25309;48.686;9.170;2023-06-22T11:48:45;9.27;;;5.57;;
39620;SDS011;25309;48.686;9.170;2023-06-22T11:51:12;7.50;;;5.30;;
39620;SDS011;25309;48.686;9.170;2023-06-22T11:53:39;10.27;;;5.40;;
39620;SDS011;25309;48.686;9.170;2023-06-22T11:56:07;10.00;;;5.95;;
39620;SDS011;25309;48.686;9.170;2023-06-22T11:58:36;9.52;;;5.88;;
39620;SDS011;25309;48.686;9.170;2023-06-22T12:01:03;8.98;;;5.40;;
39620;SDS011;25309;48.686;9.170;2023-06-22T12:03:30;11.32;;;5.45;;
39620;SDS011;25309;48.686;9.170;2023-06-22T12:05:57;10.23;;;5.47;;
39620;SDS011;25309;48.686;9.170;2023-06-22T12:08:24;8.48;;;5.28;;
39620;SDS011;25309;48.686;9.170;2023-06-22T12:10:51;9.77;;;5.30;;
39620;SDS011;25309;48.686;9.170;2023-06-22T12:13:21;10.32;;;5.95;;
39620;SDS011;25309;48.686;9.170;2023-06-22T12:15:48;7.75;;;5.13;;
39620;SDS011;25309;48.686;9.170;2023-06-22T12:18:15;9.38;;;5.00;;
39620;SDS011;25309;48.686;9.170;2023-06-22T12:20:42;10.93;;;5.93;;
39620;SDS011;25309;48.686;9.170;2023-06-22T12:23:09;8.80;;;5.07;;
39620;SDS011;25309;48.686;9.170;2023-06-22T12:25:36;11.07;;;5.95;;
39620;SDS011;25309;48.686;9.170;2023-06-22T12:28:03;9.95;;;5.40;;
39620;SDS011;25309;48.686;9.170;2023-06-22T12:30:33;11.27;;;5.90;;
39620;SDS011;25309;48.686;9.170;2023-06-22T12:33:00;9.30;;;5.38;;
39620;SDS011;25309;48.686;9.170;2023-06-22T12:35:27;9.75;;;5.80;;
39620;SDS011;25309;48.686;9.170;2023-06-22T12:37:54;9.57;;;5.32;;
39620;SDS011;25309;48.686;9.170;2023-06-22T12:40:21;10.80;;;5.25;;
39620;SDS011;25309;48.686;9.170;2023-06-22T12:42:48;11.10;;;5.80;;
39620;SDS011;25309;48.686;9.170;2023-06-22T12:45:15;12.57;;;6.00;;
39620;SDS011;25309;48.686;9.170;2023-06-22T12:47:44;10.57;;;5.78;;
39620;SDS011;25309;48.686;9.170;2023-06-22T12:50:11;10.23;;;5.40;;
39620;SDS011;25309;48.686;9.170;2023-06-22T12:52:39;11.50;;;5.57;;
39620;SDS011;25309;48.686;9.170;2023-06-22T12:55:07;11.65;;;5.70;;
39620;SDS011;25309;48.686;9.170;2023-06-22T12:57:34;8.97;;;5.80;;
39620;SDS011;25309;48.686;9.170;2023-06-22T13:00:01;8.90;;;5.68;;
39620;SDS011;25309;48.686;9.170;2023-06-22T13:02:30;12.38;;;5.93;;
39620;SDS011;25309;48.686;9.170;2023-06-22T13:04:59;9.70;;;5.40;;
39620;SDS011;25309;48.686;9.170;2023-06-22T13:07:26;7.53;;;5.37;;
39620;SDS011;25309;48.686;9.170;2023-06-22T13:09:53;9.32;;;5.63;;
39620;SDS011;25309;48.686;9.170;2023-06-22T13:12:20;10.18;;;5.35;;
39620;SDS011;25309;48.686;9.170;2023-06-22T13:14:48;10.15;;;5.20;;
39620;SDS011;25309;48.686;9.170;2023-06-22T13:17:15;8.82;;;5.35;;
39620;SDS011;25309;48.686;9.170;2023-06-22T13:19:42;10.70;;;5.70;;
39620;SDS011;25309;48.686;9.170;2023-06-22T13:22:25;6.90;;;4.78;;
39620;SDS011;25309;48.686;9.170;2023-06-22T13:24:55;8.93;;;5.22;;
39620;SDS011;25309;48.686;9.170;2023-06-22T13:27:23;9.15;;;4.90;;
39620;SDS011;25309;48.686;9.170;2023-06-22T13:29:50;10.32;;;5.28;;
39620;SDS011;25309;48.686;9.170;2023-06-22T13:32:17;11.20;;;5.40;;
39620;SDS011;25309;48.686;9.170;2023-06-22T13:34:44;8.55;;;4.93;;
39620;SDS011;25309;48.686;9.170;2023-06-22T13:37:11;7.97;;;5.18;;
39620;SDS011;25309;48.686;9.170;2023-06-22T13:39:40;8.40;;;5.15;;
39620;SDS011;25309;48.686;9.170;2023-06-22T13:42:07;9.73;;;5.25;;
39620;SDS011;25309;48.686;9.170;2023-06-22T13:44:34;9.13;;;5.28;;
39620;SDS011;25309;48.686;9.170;2023-06-22T13:47:01;9.20;;;5.13;;
39620;SDS011;25309;48.686;9.170;2023-06-22T13:49:28;10.70;;;5.38;;
39620;SDS011;25309;48.686;9.170;2023-06-22T13:51:55;10.52;;;5.65;;
39620;SDS011;25309;48.686;9.170;2023-06-22T13:54:22;9.25;;;5.20;;
39620;SDS011;25309;48.686;9.170;2023-06-22T13:56:57;10.30;;;5.50;;
39620;SDS011;25309;48.686;9.170;2023-06-22T13:59:24;9.45;;;5.40;;
39620;SDS011;25309;48.686;9.170;2023-06-22T14:01:53;12.13;;;5.68;;
39620;SDS011;25309;48.686;9.170;2023-06-22T14:04:21;9.07;;;5.70;;
39620;SDS011;25309;48.686;9.170;2023-06-22T14:06:48;8.85;;;5.47;;
39620;SDS011;25309;48.686;9.170;2023-06-22T14:09:15;8.77;;;5.32;;
39620;SDS011;25309;48.686;9.170;2023-06-22T14:11:42;9.95;;;5.40;;
39620;SDS011;25309;48.686;9.170;2023-06-22T14:14:10;8.93;;;5.70;;
39620;SDS011;25309;48.686;9.170;2023-06-22T14:16:37;9.38;;;5.30;;
39620;SDS011;25309;48.686;9.170;2023-06-22T14:19:04;10.05;;;5.05;;
39620;SDS011;25309;48.686;9.170;2023-06-22T14:21:31;10.30;;;5.40;;
39620;SDS011;25309;48.686;9.170;2023-06-22T14:23:58;8.75;;;5.07;;
39620;SDS011;25309;48.686;9.170;2023-06-22T14:26:25;8.68;;;5.18;;
39620;SDS011;25309;48.686;9.170;2023-06-22T14:28:52;9.00;;;5.50;;
39620;SDS011;25309;48.686;9.170;2023-06-22T14:31:21;9.82;;;5.55;;
39620;SDS011;25309;48.686;9.170;2023-06-22T14:33:49;12.95;;;5.70;;
39620;SDS011;25309;48.686;9.170;2023-06-22T14:36:16;8.77;;;5.25;;
39620;SDS011;25309;48.686;9.170;2023-06-22T14:38:44;8.30;;;5.13;;
39620;SDS011;25309;48.686;9.170;2023-06-22T14:41:13;12.93;;;5.00;;
39620;SDS011;25309;48.686;9.170;2023-06-22T14:43:44;10.23;;;4.80;;
39620;SDS011;25309;48.686;9.170;2023-06-22T14:46:12;10.57;;;5.00;;
39620;SDS011;25309;48.686;9.170;2023-06-22T14:48:41;14.60;;;4.63;;
39620;SDS011;25309;48.686;9.170;2023-06-22T14:51:09;10.00;;;4.00;;
39620;SDS011;25309;48.686;9.170;2023-06-22T14:53:39;9.18;;;3.58;;